createdAt,value
2023-04-30T00:00:50.535Z,5.67
2023-04-30T00:03:19.167Z,5.13
2023-04-30T00:05:51.571Z,4.90
2023-04-30T00:08:20.090Z,4.90
2023-04-30T00:10:50.066Z,4.63
2023-04-30T00:13:19.075Z,5.50
2023-04-30T00:15:47.621Z,5.43
2023-04-30T00:18:16.235Z,5.83
2023-04-30T00:20:44.750Z,5.60
2023-04-30T00:23:13.424Z,5.83
2023-04-30T00:25:41.883Z,6.13
2023-04-30T00:28:11.794Z,5.60
2023-04-30T00:30:40.357Z,6.47
2023-04-30T00:33:09.511Z,5.87
2023-04-30T00:35:38.131Z,6.57
2023-04-30T00:38:07.175Z,6.37
2023-04-30T00:40:36.113Z,6.23
2023-04-30T00:43:04.705Z,5.97
2023-04-30T00:45:34.560Z,6.20
2023-04-30T00:48:03.428Z,6.57
2023-04-30T00:50:32.200Z,6.50
2023-04-30T00:53:01.389Z,6.90
2023-04-30T00:55:30.512Z,6.03
2023-04-30T00:58:00.902Z,5.80
2023-04-30T01:00:29.955Z,5.90
2023-04-30T01:03:00.171Z,6.00
2023-04-30T01:05:28.906Z,6.60
2023-04-30T01:07:58.216Z,5.53
2023-04-30T01:10:36.541Z,6.53
2023-04-30T01:13:11.532Z,5.97
2023-04-30T01:15:55.491Z,5.87
2023-04-30T01:18:30.557Z,6.00
2023-04-30T01:21:05.437Z,5.17
2023-04-30T01:23:57.250Z,5.40
2023-04-30T01:26:46.130Z,4.90
2023-04-30T01:29:20.513Z,5.47
2023-04-30T01:31:49.099Z,5.73
2023-04-30T01:34:17.686Z,5.17
2023-04-30T01:37:02.161Z,6.23
2023-04-30T01:39:41.040Z,6.43
2023-04-30T01:42:14.859Z,6.30
2023-04-30T01:44:59.510Z,6.80
2023-04-30T01:47:38.680Z,6.93
2023-04-30T01:50:16.742Z,6.87
2023-04-30T01:52:48.459Z,6.80
2023-04-30T01:55:22.307Z,6.57
2023-04-30T01:57:57.507Z,6.40
2023-04-30T02:00:28.349Z,7.13
2023-04-30T02:02:57.494Z,5.40
2023-04-30T02:05:26.175Z,6.50
2023-04-30T02:07:54.691Z,6.27
2023-04-30T02:10:26.368Z,6.47
2023-04-30T02:12:55.137Z,7.17
2023-04-30T02:15:23.806Z,6.80
2023-04-30T02:17:53.848Z,6.70
2023-04-30T02:20:22.476Z,7.20
2023-04-30T02:22:51.046Z,6.17
2023-04-30T02:25:19.730Z,6.97
2023-04-30T02:27:50.484Z,5.63
2023-04-30T02:30:20.075Z,6.37
2023-04-30T02:32:49.210Z,6.33
2023-04-30T02:35:19.323Z,6.50
2023-04-30T02:37:47.835Z,6.70
2023-04-30T02:40:16.436Z,6.80
2023-04-30T02:42:44.941Z,6.33
2023-04-30T02:45:13.454Z,5.80
2023-04-30T02:47:42.136Z,6.57
2023-04-30T02:50:11.419Z,5.63
2023-04-30T02:52:41.481Z,6.33
2023-04-30T02:55:10.718Z,5.53
2023-04-30T02:57:39.206Z,5.17
2023-04-30T03:00:08.872Z,5.10
2023-04-30T03:02:37.882Z,4.90
2023-04-30T03:05:07.379Z,4.67
2023-04-30T03:07:36.076Z,4.57
2023-04-30T03:10:07.005Z,4.67
2023-04-30T03:12:35.583Z,5.03
2023-04-30T03:15:04.660Z,5.83
2023-04-30T03:17:33.179Z,6.70
2023-04-30T03:20:01.659Z,6.87
2023-04-30T03:22:30.204Z,7.20
2023-04-30T03:24:58.717Z,5.90
2023-04-30T03:27:28.648Z,6.20
2023-04-30T03:29:57.309Z,6.93
2023-04-30T03:32:25.951Z,5.70
2023-04-30T03:34:54.637Z,6.07
2023-04-30T03:37:23.134Z,6.17
2023-04-30T03:39:51.732Z,6.60
2023-04-30T03:42:20.443Z,6.17
2023-04-30T03:44:50.587Z,6.60
2023-04-30T03:47:19.337Z,5.83
2023-04-30T03:49:55.086Z,6.00
2023-04-30T03:52:24.598Z,6.27
2023-04-30T03:54:53.416Z,5.80
2023-04-30T03:57:22.464Z,5.50
2023-04-30T03:59:52.865Z,6.27
2023-04-30T04:02:22.366Z,5.90
2023-04-30T04:04:51.609Z,5.80
2023-04-30T04:07:20.403Z,6.87
2023-04-30T04:09:49.066Z,7.00
2023-04-30T04:12:17.729Z,6.83
2023-04-30T04:14:46.665Z,5.97
2023-04-30T04:17:16.827Z,6.67
2023-04-30T04:19:46.496Z,5.87
2023-04-30T04:22:15.829Z,6.37
2023-04-30T04:24:45.717Z,7.00
2023-04-30T04:27:17.798Z,8.47
2023-04-30T04:29:46.418Z,6.60
2023-04-30T04:32:16.979Z,6.30
2023-04-30T04:34:45.964Z,6.30
2023-04-30T04:37:14.884Z,6.87
2023-04-30T04:39:44.968Z,6.93
2023-04-30T04:42:13.866Z,7.20
2023-04-30T04:44:42.520Z,7.87
2023-04-30T04:47:12.624Z,7.87
2023-04-30T04:49:42.531Z,7.80
2023-04-30T04:52:11.017Z,7.97
2023-04-30T04:54:39.682Z,7.83
2023-04-30T04:57:08.344Z,7.40
2023-04-30T04:59:36.832Z,6.73
2023-04-30T05:02:05.421Z,7.43
2023-04-30T05:04:33.998Z,7.30
2023-04-30T05:07:03.949Z,8.23
2023-04-30T05:09:32.642Z,7.57
2023-04-30T05:12:02.216Z,7.43
2023-04-30T05:14:30.756Z,8.03
2023-04-30T05:16:59.384Z,6.57
2023-04-30T05:19:27.923Z,7.60
2023-04-30T05:21:56.434Z,7.13
2023-04-30T05:24:26.342Z,7.80
2023-04-30T05:26:54.847Z,7.00
2023-04-30T05:29:23.475Z,7.10
2023-04-30T05:31:52.122Z,8.33
2023-04-30T05:34:20.678Z,8.43
2023-04-30T05:36:49.227Z,7.67
2023-04-30T05:39:17.851Z,7.53
2023-04-30T05:41:48.926Z,7.47
2023-04-30T05:44:17.596Z,7.60
2023-04-30T05:46:46.190Z,7.20
2023-04-30T05:49:14.784Z,6.67
2023-04-30T05:51:43.523Z,8.20
2023-04-30T05:54:12.057Z,6.80
2023-04-30T05:56:40.556Z,6.90
2023-04-30T05:59:10.524Z,7.30
2023-04-30T06:01:39.076Z,6.63
2023-04-30T06:04:09.254Z,7.17
2023-04-30T06:06:37.841Z,6.30
2023-04-30T06:09:06.378Z,5.60
2023-04-30T06:11:34.912Z,5.20
2023-04-30T06:14:03.841Z,5.20
2023-04-30T06:16:33.890Z,5.60
2023-04-30T06:19:02.448Z,4.23
2023-04-30T06:21:31.901Z,5.37
2023-04-30T06:24:00.506Z,4.50
2023-04-30T06:26:29.108Z,5.30
2023-04-30T06:28:58.062Z,3.90
2023-04-30T06:31:26.616Z,3.97
2023-04-30T06:33:56.623Z,4.00
2023-04-30T06:36:25.276Z,3.77
2023-04-30T06:38:53.816Z,3.90
2023-04-30T06:41:22.292Z,3.50
2023-04-30T06:43:50.877Z,3.03
2023-04-30T06:46:19.495Z,3.50
2023-04-30T06:48:48.058Z,3.93
2023-04-30T06:51:17.992Z,4.30
2023-04-30T06:53:46.529Z,3.80
2023-04-30T06:56:15.128Z,3.90
2023-04-30T06:58:43.741Z,3.70
2023-04-30T07:01:12.293Z,3.80
2023-04-30T07:03:41.086Z,4.00
2023-04-30T07:06:09.764Z,3.77
2023-04-30T07:08:41.229Z,3.57
2023-04-30T07:11:09.747Z,4.07
2023-04-30T07:13:38.471Z,3.50
2023-04-30T07:16:09.952Z,3.37
2023-04-30T07:18:39.588Z,3.10
2023-04-30T07:21:08.457Z,3.20
2023-04-30T07:23:37.158Z,3.43
2023-04-30T07:26:07.188Z,4.37
2023-04-30T07:28:35.806Z,3.23
2023-04-30T07:31:04.377Z,3.13
2023-04-30T07:33:33.261Z,3.00
2023-04-30T07:36:01.783Z,4.17
2023-04-30T07:38:30.794Z,3.50
2023-04-30T07:40:59.414Z,3.90
2023-04-30T07:43:30.630Z,3.70
2023-04-30T07:46:00.551Z,3.30
2023-04-30T07:48:29.163Z,3.50
2023-04-30T07:50:57.885Z,3.75
2023-04-30T07:53:26.540Z,3.40
2023-04-30T07:55:55.136Z,3.85
2023-04-30T07:58:23.684Z,3.55
2023-04-30T08:00:56.397Z,3.35
2023-04-30T08:03:24.997Z,3.80
2023-04-30T08:05:54.208Z,3.15
2023-04-30T08:08:22.809Z,3.42
2023-04-30T08:10:51.333Z,3.67
2023-04-30T08:13:20.720Z,3.40
2023-04-30T08:15:49.273Z,3.50
2023-04-30T08:18:19.339Z,2.88
2023-04-30T08:20:48.539Z,3.10
2023-04-30T08:23:17.882Z,3.30
2023-04-30T08:25:46.485Z,3.10
2023-04-30T08:28:15.030Z,2.88
2023-04-30T08:30:43.547Z,2.67
2023-04-30T08:33:12.482Z,3.65
2023-04-30T08:35:42.453Z,3.60
2023-04-30T08:38:11.021Z,3.10
2023-04-30T08:40:50.927Z,3.15
2023-04-30T08:43:21.470Z,2.67
2023-04-30T08:45:52.188Z,2.80
2023-04-30T08:48:22.320Z,2.67
2023-04-30T08:50:52.339Z,2.65
2023-04-30T08:53:22.238Z,2.80
2023-04-30T08:55:51.159Z,2.85
2023-04-30T08:58:20.084Z,2.60
2023-04-30T09:00:48.578Z,2.50
2023-04-30T09:03:17.339Z,2.95
2023-04-30T09:05:46.120Z,2.35
2023-04-30T09:08:20.468Z,2.63
2023-04-30T09:10:49.012Z,2.60
2023-04-30T09:13:17.505Z,2.45
2023-04-30T09:15:46.706Z,2.30
2023-04-30T09:18:18.155Z,3.05
2023-04-30T09:21:08.253Z,2.35
2023-04-30T09:23:38.228Z,2.40
2023-04-30T09:26:06.878Z,2.40
2023-04-30T09:28:35.419Z,1.83
2023-04-30T09:31:04.070Z,1.90
2023-04-30T09:33:47.357Z,2.05
2023-04-30T09:36:16.264Z,2.40
2023-04-30T09:38:46.781Z,2.00
2023-04-30T09:41:27.210Z,2.08
2023-04-30T09:43:56.083Z,2.15
2023-04-30T09:46:32.360Z,2.20
2023-04-30T09:49:02.126Z,1.88
2023-04-30T09:51:31.064Z,2.08
2023-04-30T09:54:04.468Z,1.80
2023-04-30T09:56:39.421Z,2.03
2023-04-30T09:59:09.556Z,1.98
2023-04-30T10:01:40.854Z,1.98
2023-04-30T10:04:09.933Z,1.92
2023-04-30T10:06:39.361Z,1.35
2023-04-30T10:09:11.856Z,2.00
2023-04-30T10:11:42.316Z,2.22
2023-04-30T10:14:13.397Z,1.67
2023-04-30T10:16:49.011Z,1.80
2023-04-30T10:19:21.533Z,1.63
2023-04-30T10:21:51.136Z,1.95
2023-04-30T10:24:22.186Z,2.00
2023-04-30T10:26:51.214Z,2.00
2023-04-30T10:29:19.929Z,2.00
2023-04-30T10:31:50.256Z,1.92
2023-04-30T10:34:27.010Z,1.70
2023-04-30T10:36:59.099Z,1.65
2023-04-30T10:39:29.599Z,2.53
2023-04-30T10:42:05.225Z,1.60
2023-04-30T10:44:35.101Z,1.63
2023-04-30T10:47:05.271Z,1.70
2023-04-30T10:49:34.985Z,1.75
2023-04-30T10:52:04.984Z,2.00
2023-04-30T10:54:36.772Z,2.03
2023-04-30T10:57:14.258Z,2.10
2023-04-30T10:59:53.452Z,1.65
2023-04-30T11:02:22.597Z,2.05
2023-04-30T11:05:11.243Z,2.03
2023-04-30T11:07:49.688Z,1.63
2023-04-30T11:10:23.118Z,1.88
2023-04-30T11:12:53.344Z,1.65
2023-04-30T11:15:25.458Z,2.10
2023-04-30T11:17:58.680Z,1.70
2023-04-30T11:20:27.656Z,1.67
2023-04-30T11:23:14.241Z,2.08
2023-04-30T11:25:48.380Z,1.90
2023-04-30T11:28:20.674Z,1.95
2023-04-30T11:30:54.104Z,2.10
2023-04-30T11:33:23.659Z,1.92
2023-04-30T11:35:53.523Z,1.38
2023-04-30T11:38:23.689Z,2.05
2023-04-30T11:40:54.984Z,1.77
2023-04-30T11:43:27.502Z,1.60
2023-04-30T11:46:08.508Z,2.10
2023-04-30T11:48:39.064Z,1.88
2023-04-30T11:51:16.178Z,1.65
2023-04-30T11:53:46.868Z,1.58
2023-04-30T11:56:19.440Z,1.70
2023-04-30T11:58:48.831Z,1.85
2023-04-30T12:01:18.406Z,1.70
2023-04-30T12:03:48.657Z,1.70
2023-04-30T12:06:24.039Z,1.67
2023-04-30T12:08:54.347Z,1.58
2023-04-30T12:11:25.905Z,1.88
2023-04-30T12:13:56.334Z,1.70
2023-04-30T12:16:25.470Z,2.20
2023-04-30T12:18:54.136Z,1.42
2023-04-30T12:21:23.625Z,1.65
2023-04-30T12:23:52.258Z,3.55
2023-04-30T12:26:21.013Z,2.08
2023-04-30T12:28:51.196Z,2.20
2023-04-30T12:31:19.829Z,1.40
2023-04-30T12:33:58.038Z,1.58
2023-04-30T12:36:33.764Z,1.70
2023-04-30T12:39:08.679Z,1.52
2023-04-30T12:41:39.096Z,1.52
2023-04-30T12:44:20.058Z,1.50
2023-04-30T12:46:49.286Z,1.70
2023-04-30T12:49:25.783Z,1.38
2023-04-30T12:51:59.698Z,1.52
2023-04-30T12:54:29.764Z,1.05
2023-04-30T12:57:01.259Z,1.25
2023-04-30T12:59:31.961Z,1.52
2023-04-30T13:02:08.359Z,1.50
2023-04-30T13:04:37.110Z,1.92
2023-04-30T13:07:05.849Z,1.50
2023-04-30T13:09:35.107Z,1.55
2023-04-30T13:12:03.902Z,1.48
2023-04-30T13:14:34.613Z,1.58
2023-04-30T13:17:05.682Z,1.30
2023-04-30T13:19:34.728Z,1.10
2023-04-30T13:22:03.336Z,1.55
2023-04-30T13:24:32.189Z,1.25
2023-04-30T13:27:00.722Z,1.50
2023-04-30T13:29:29.268Z,1.98
2023-04-30T13:31:59.246Z,1.13
2023-04-30T13:34:27.815Z,1.40
2023-04-30T13:36:56.377Z,1.83
2023-04-30T13:39:24.951Z,1.52
2023-04-30T13:41:53.522Z,1.60
2023-04-30T13:44:22.322Z,3.33
2023-04-30T13:46:51.003Z,1.33
2023-04-30T13:49:21.195Z,2.00
2023-04-30T13:51:49.848Z,1.70
2023-04-30T13:54:18.397Z,1.23
2023-04-30T13:56:48.680Z,1.30
2023-04-30T13:59:17.358Z,1.33
2023-04-30T14:01:46.018Z,0.88
2023-04-30T14:04:15.159Z,0.82
2023-04-30T14:06:45.576Z,1.00
2023-04-30T14:09:14.196Z,1.08
2023-04-30T14:11:43.068Z,0.90
2023-04-30T14:14:11.648Z,0.80
2023-04-30T14:16:40.303Z,0.70
2023-04-30T14:19:09.044Z,1.17
2023-04-30T14:21:37.586Z,0.90
2023-04-30T14:24:08.104Z,1.00
2023-04-30T14:26:36.659Z,0.70
2023-04-30T14:29:05.173Z,1.10
2023-04-30T14:31:33.777Z,0.88
2023-04-30T14:34:02.408Z,0.70
2023-04-30T14:36:31.485Z,0.70
2023-04-30T14:39:00.017Z,0.63
2023-04-30T14:41:30.022Z,0.70
2023-04-30T14:43:58.635Z,0.80
2023-04-30T14:46:28.129Z,0.55
2023-04-30T14:48:57.372Z,0.70
2023-04-30T14:51:26.046Z,0.50
2023-04-30T14:53:54.549Z,0.73
2023-04-30T14:56:24.756Z,0.55
2023-04-30T14:58:54.852Z,0.77
2023-04-30T15:01:23.592Z,0.50
2023-04-30T15:03:53.145Z,0.50
2023-04-30T15:06:21.836Z,0.77
2023-04-30T15:08:50.573Z,0.70
2023-04-30T15:11:19.097Z,0.50
2023-04-30T15:13:48.258Z,0.57
2023-04-30T15:16:18.209Z,1.07
2023-04-30T15:18:47.114Z,0.70
2023-04-30T15:21:15.806Z,0.60
2023-04-30T15:23:44.396Z,0.63
2023-04-30T15:26:13.049Z,0.83
2023-04-30T15:28:41.657Z,0.60
2023-04-30T15:31:11.395Z,0.77
2023-04-30T15:33:42.140Z,0.43
2023-04-30T15:36:11.980Z,0.50
2023-04-30T15:38:40.641Z,0.80
2023-04-30T15:41:09.169Z,0.57
2023-04-30T15:43:37.815Z,0.70
2023-04-30T15:46:06.497Z,1.07
2023-04-30T15:48:35.168Z,0.83
2023-04-30T15:51:05.173Z,0.60
2023-04-30T15:53:33.783Z,0.90
2023-04-30T15:56:04.322Z,0.70
2023-04-30T15:58:32.991Z,0.60
2023-04-30T16:01:01.960Z,0.80
2023-04-30T16:03:30.746Z,0.60
2023-04-30T16:06:00.909Z,0.73
2023-04-30T16:08:31.127Z,0.70
2023-04-30T16:11:01.557Z,0.70
2023-04-30T16:13:30.118Z,0.60
2023-04-30T16:15:58.693Z,0.60
2023-04-30T16:18:29.783Z,0.70
2023-04-30T16:20:58.463Z,0.80
2023-04-30T16:23:27.222Z,0.70
2023-04-30T16:25:57.138Z,1.07
2023-04-30T16:28:28.268Z,0.97
2023-04-30T16:30:57.060Z,0.70
2023-04-30T16:33:26.058Z,1.10
2023-04-30T16:35:55.168Z,0.77
2023-04-30T16:38:23.933Z,0.63
2023-04-30T16:40:52.542Z,0.60
2023-04-30T16:43:22.538Z,0.50
2023-04-30T16:45:51.564Z,0.83
2023-04-30T16:48:20.203Z,0.77
2023-04-30T16:50:48.768Z,1.03
2023-04-30T16:53:17.368Z,0.50
2023-04-30T16:55:45.932Z,0.60
2023-04-30T16:58:14.494Z,0.70
2023-04-30T17:00:44.446Z,0.53
2023-04-30T17:03:13.114Z,0.60
2023-04-30T17:05:41.729Z,0.73
2023-04-30T17:08:10.412Z,1.00
2023-04-30T17:10:40.430Z,0.60
2023-04-30T17:13:09.059Z,0.60
2023-04-30T17:15:37.767Z,1.13
2023-04-30T17:18:09.572Z,0.77
2023-04-30T17:20:38.369Z,0.47
2023-04-30T17:23:06.964Z,0.50
2023-04-30T17:25:35.948Z,0.63
2023-04-30T17:28:04.719Z,0.77
2023-04-30T17:30:33.594Z,0.77
2023-04-30T17:33:02.253Z,0.70
2023-04-30T17:35:32.222Z,0.80
2023-04-30T17:38:01.353Z,0.80
2023-04-30T17:40:31.391Z,0.67
2023-04-30T17:43:00.053Z,1.00
2023-04-30T17:45:28.592Z,1.57
2023-04-30T17:47:57.240Z,1.10
2023-04-30T17:50:25.854Z,1.07
2023-04-30T17:52:55.942Z,1.23
2023-04-30T17:55:25.769Z,1.33
2023-04-30T17:57:54.441Z,1.20
2023-04-30T18:00:23.488Z,0.97
2023-04-30T18:02:52.205Z,1.33
2023-04-30T18:05:23.351Z,1.30
2023-04-30T18:07:51.926Z,1.03
2023-04-30T18:10:21.935Z,1.33
2023-04-30T18:12:51.109Z,1.40
2023-04-30T18:15:19.775Z,0.93
2023-04-30T18:17:48.409Z,0.73
2023-04-30T18:20:17.293Z,1.00
2023-04-30T18:22:45.954Z,1.37
2023-04-30T18:25:17.267Z,2.17
2023-04-30T18:27:47.526Z,1.47
2023-04-30T18:30:16.170Z,1.00
2023-04-30T18:32:45.031Z,0.83
2023-04-30T18:35:13.910Z,1.00
2023-04-30T18:37:42.610Z,0.80
2023-04-30T18:40:11.861Z,0.70
2023-04-30T18:42:40.478Z,0.83
2023-04-30T18:45:11.784Z,1.07
2023-04-30T18:47:40.362Z,1.10
2023-04-30T18:50:13.379Z,0.77
2023-04-30T18:52:42.202Z,1.10
2023-04-30T18:55:13.589Z,1.40
2023-04-30T18:57:43.359Z,1.50
2023-04-30T19:00:14.941Z,1.70
2023-04-30T19:02:44.183Z,1.30
2023-04-30T19:05:14.219Z,1.00
2023-04-30T19:07:42.868Z,0.90
2023-04-30T19:10:11.878Z,1.03
2023-04-30T19:12:40.611Z,1.47
2023-04-30T19:15:11.657Z,1.30
2023-04-30T19:17:41.944Z,1.87
2023-04-30T19:20:11.724Z,1.03
2023-04-30T19:22:40.840Z,1.13
2023-04-30T19:25:10.591Z,1.40
2023-04-30T19:27:39.221Z,1.30
2023-04-30T19:30:09.314Z,1.23
2023-04-30T19:32:38.089Z,1.33
2023-04-30T19:35:09.248Z,1.83
2023-04-30T19:37:37.937Z,1.00
2023-04-30T19:40:11.959Z,1.20
2023-04-30T19:42:40.789Z,1.27
2023-04-30T19:45:10.859Z,1.67
2023-04-30T19:47:39.654Z,2.30
2023-04-30T19:50:10.784Z,2.50
2023-04-30T19:52:39.439Z,2.00
2023-04-30T19:55:08.624Z,1.70
2023-04-30T19:57:37.268Z,1.70
2023-04-30T20:00:06.729Z,2.00
2023-04-30T20:02:38.432Z,1.30
2023-04-30T20:05:11.863Z,1.50
2023-04-30T20:07:40.577Z,1.30
2023-04-30T20:10:10.698Z,1.23
2023-04-30T20:12:39.482Z,1.30
2023-04-30T20:15:09.042Z,1.90
2023-04-30T20:17:37.875Z,1.50
2023-04-30T20:20:07.525Z,1.73
2023-04-30T20:22:37.693Z,1.73
2023-04-30T20:25:08.187Z,2.00
2023-04-30T20:27:37.073Z,1.73
2023-04-30T20:30:06.302Z,1.80
2023-04-30T20:32:35.590Z,1.53
2023-04-30T20:35:05.436Z,2.00
2023-04-30T20:37:34.344Z,2.00
2023-04-30T20:40:07.795Z,2.07
2023-04-30T20:42:36.563Z,2.63
2023-04-30T20:45:06.378Z,2.10
2023-04-30T20:47:35.047Z,1.70
2023-04-30T20:50:04.074Z,1.40
2023-04-30T20:52:32.729Z,2.00
2023-04-30T20:55:01.401Z,1.50
2023-04-30T20:57:31.500Z,1.40
2023-04-30T21:00:00.273Z,1.50
2023-04-30T21:02:29.161Z,1.50
2023-04-30T21:04:58.707Z,1.50
2023-04-30T21:07:27.552Z,1.50
2023-04-30T21:09:56.686Z,1.87
2023-04-30T21:12:25.665Z,1.87
2023-04-30T21:14:55.900Z,1.80
2023-04-30T21:17:24.603Z,1.87
2023-04-30T21:19:53.546Z,2.07
2023-04-30T21:22:22.295Z,2.00
2023-04-30T21:24:53.448Z,2.10
2023-04-30T21:27:23.223Z,1.83
2023-04-30T21:29:51.886Z,3.20
2023-04-30T21:32:22.022Z,2.77
2023-04-30T21:34:50.613Z,3.10
2023-04-30T21:37:19.259Z,2.13
2023-04-30T21:39:47.876Z,2.30
2023-04-30T21:42:16.486Z,2.23
2023-04-30T21:44:45.089Z,2.07
2023-04-30T21:47:13.766Z,1.50
2023-04-30T21:49:43.764Z,1.87
2023-04-30T21:52:12.388Z,2.10
2023-04-30T21:54:41.009Z,1.80
2023-04-30T21:57:09.575Z,1.97
2023-04-30T21:59:38.168Z,2.23
2023-04-30T22:02:16.460Z,2.27
2023-04-30T22:04:53.502Z,1.93
2023-04-30T22:07:22.770Z,2.00
2023-04-30T22:09:52.712Z,1.97
2023-04-30T22:12:24.928Z,1.73
2023-04-30T22:14:54.257Z,2.00
2023-04-30T22:17:22.973Z,1.80
2023-04-30T22:19:53.082Z,2.07
2023-04-30T22:22:22.002Z,2.30
2023-04-30T22:24:50.527Z,2.43
2023-04-30T22:27:19.391Z,1.40
2023-04-30T22:29:50.476Z,2.40
2023-04-30T22:32:19.490Z,2.03
2023-04-30T22:34:48.641Z,1.87
2023-04-30T22:37:18.564Z,1.97
2023-04-30T22:39:48.424Z,2.20
2023-04-30T22:42:17.387Z,2.40
2023-04-30T22:44:46.506Z,2.70
2023-04-30T22:47:15.404Z,2.17
2023-04-30T22:49:44.086Z,2.30
2023-04-30T22:52:12.773Z,1.97
2023-04-30T22:54:42.913Z,1.77
2023-04-30T22:57:11.455Z,2.10
2023-04-30T22:59:40.474Z,2.67
2023-04-30T23:02:09.181Z,3.13
2023-04-30T23:04:37.789Z,2.87
2023-04-30T23:07:06.485Z,2.60
2023-04-30T23:09:35.543Z,2.53
2023-04-30T23:12:05.819Z,2.97
2023-04-30T23:14:34.343Z,3.30
2023-04-30T23:17:03.233Z,3.00
2023-04-30T23:19:31.881Z,2.70
2023-04-30T23:22:00.452Z,2.83
2023-04-30T23:24:29.209Z,2.10
2023-04-30T23:26:58.251Z,2.00
2023-04-30T23:29:28.314Z,1.90
2023-04-30T23:31:56.834Z,1.83
2023-04-30T23:34:25.591Z,2.63
2023-04-30T23:36:54.134Z,1.90
2023-04-30T23:39:24.329Z,1.90
2023-04-30T23:41:53.237Z,2.40
2023-04-30T23:44:22.138Z,2.20
2023-04-30T23:46:52.176Z,1.90
2023-04-30T23:49:24.410Z,2.30
2023-04-30T23:51:53.123Z,2.37
2023-04-30T23:54:22.380Z,2.33
2023-04-30T23:56:51.499Z,3.17
2023-04-30T23:59:20.054Z,2.47
